sensor_id;sensor_type;location;lat;lon;timestamp;temperature;humidity
46123;DHT22;31856;-35.404;149.120;2023-04-15T00:00:38;16.10;71.60
46123;DHT22;31856;-35.404;149.120;2023-04-15T00:03:09;16.10;71.40
46123;DHT22;31856;-35.404;149.120;2023-04-15T00:05:39;16.10;70.60
46123;DHT22;31856;-35.404;149.120;2023-04-15T00:08:09;16.10;70.80
46123;DHT22;31856;-35.404;149.120;2023-04-15T00:10:38;16.30;71.10
46123;DHT22;31856;-35.404;149.120;2023-04-15T00:13:08;16.30;69.90
46123;DHT22;31856;-35.404;149.120;2023-04-15T00:15:37;16.30;70.40
46123;DHT22;31856;-35.404;149.120;2023-04-15T00:18:07;16.40;70.30
46123;DHT22;31856;-35.404;149.120;2023-04-15T00:20:37;16.50;70.00
46123;DHT22;31856;-35.404;149.120;2023-04-15T00:23:06;16.70;70.00
46123;DHT22;31856;-35.404;149.120;2023-04-15T00:25:36;16.70;69.70
46123;DHT22;31856;-35.404;149.120;2023-04-15T00:28:05;16.70;68.90
46123;DHT22;31856;-35.404;149.120;2023-04-15T00:30:35;16.80;68.60
46123;DHT22;31856;-35.404;149.120;2023-04-15T00:33:05;16.90;68.70
46123;DHT22;31856;-35.404;149.120;2023-04-15T00:35:35;17.00;68.50
46123;DHT22;31856;-35.404;149.120;2023-04-15T04:02:23;19.80;60.10
46123;DHT22;31856;-35.404;149.120;2023-04-15T04:04:54;19.80;59.90
46123;DHT22;31856;-35.404;149.120;2023-04-15T04:07:25;19.80;59.60
46123;DHT22;31856;-35.404;149.120;2023-04-15T04:09:56;19.80;59.80
46123;DHT22;31856;-35.404;149.120;2023-04-15T04:12:28;19.80;60.10
46123;DHT22;31856;-35.404;149.120;2023-04-15T04:15:13;19.90;60.20
46123;DHT22;31856;-35.404;149.120;2023-04-15T04:17:50;20.00;60.20
46123;DHT22;31856;-35.404;149.120;2023-04-15T04:20:20;20.10;59.00
46123;DHT22;31856;-35.404;149.120;2023-04-15T04:22:49;20.10;59.10
46123;DHT22;31856;-35.404;149.120;2023-04-15T04:25:19;20.00;58.70
46123;DHT22;31856;-35.404;149.120;2023-04-15T04:27:49;20.10;59.60
46123;DHT22;31856;-35.404;149.120;2023-04-15T04:30:18;20.10;58.10
46123;DHT22;31856;-35.404;149.120;2023-04-15T04:32:48;20.10;58.00
46123;DHT22;31856;-35.404;149.120;2023-04-15T04:35:18;20.10;57.50
46123;DHT22;31856;-35.404;149.120;2023-04-15T04:40:55;20.20;56.90
46123;DHT22;31856;-35.404;149.120;2023-04-15T04:43:36;20.20;57.10
46123;DHT22;31856;-35.404;149.120;2023-04-15T04:46:23;20.20;57.00
46123;DHT22;31856;-35.404;149.120;2023-04-15T04:48:54;20.10;57.20
46123;DHT22;31856;-35.404;149.120;2023-04-15T04:51:24;20.10;57.20
46123;DHT22;31856;-35.404;149.120;2023-04-15T04:53:53;20.20;57.70
46123;DHT22;31856;-35.404;149.120;2023-04-15T04:56:24;20.20;58.60
46123;DHT22;31856;-35.404;149.120;2023-04-15T04:58:53;20.30;58.80
46123;DHT22;31856;-35.404;149.120;2023-04-15T05:01:29;20.30;59.00
46123;DHT22;31856;-35.404;149.120;2023-04-15T05:04:47;20.10;57.90
46123;DHT22;31856;-35.404;149.120;2023-04-15T05:07:17;20.10;57.40
46123;DHT22;31856;-35.404;149.120;2023-04-15T05:09:48;20.30;56.70
46123;DHT22;31856;-35.404;149.120;2023-04-15T05:12:18;20.30;56.90
46123;DHT22;31856;-35.404;149.120;2023-04-15T05:14:47;20.40;57.60
46123;DHT22;31856;-35.404;149.120;2023-04-15T05:17:17;20.30;57.40
46123;DHT22;31856;-35.404;149.120;2023-04-15T05:20:08;20.30;57.60
46123;DHT22;31856;-35.404;149.120;2023-04-15T05:22:54;20.10;58.00
46123;DHT22;31856;-35.404;149.120;2023-04-15T05:25:23;19.90;58.60
46123;DHT22;31856;-35.404;149.120;2023-04-15T05:27:52;19.90;59.30
46123;DHT22;31856;-35.404;149.120;2023-04-15T05:30:22;19.80;60.20
46123;DHT22;31856;-35.404;149.120;2023-04-15T05:32:51;19.80;60.30
46123;DHT22;31856;-35.404;149.120;2023-04-15T05:35:21;19.70;60.20
46123;DHT22;31856;-35.404;149.120;2023-04-15T05:37:50;19.60;60.60
46123;DHT22;31856;-35.404;149.120;2023-04-15T05:40:20;19.70;60.90
46123;DHT22;31856;-35.404;149.120;2023-04-15T05:42:53;19.60;60.70
46123;DHT22;31856;-35.404;149.120;2023-04-15T05:45:26;19.50;59.00
46123;DHT22;31856;-35.404;149.120;2023-04-15T05:47:55;19.30;58.00
46123;DHT22;31856;-35.404;149.120;2023-04-15T05:50:25;19.30;58.30
46123;DHT22;31856;-35.404;149.120;2023-04-15T05:52:54;19.20;58.20
46123;DHT22;31856;-35.404;149.120;2023-04-15T05:55:24;19.20;58.20
46123;DHT22;31856;-35.404;149.120;2023-04-15T05:57:54;19.20;59.00
46123;DHT22;31856;-35.404;149.120;2023-04-15T06:00:23;19.30;59.00
46123;DHT22;31856;-35.404;149.120;2023-04-15T06:02:52;19.30;58.00
46123;DHT22;31856;-35.404;149.120;2023-04-15T06:05:22;19.30;58.20
46123;DHT22;31856;-35.404;149.120;2023-04-15T06:07:52;19.40;58.90
46123;DHT22;31856;-35.404;149.120;2023-04-15T06:10:21;19.40;58.80
46123;DHT22;31856;-35.404;149.120;2023-04-15T06:12:51;19.40;58.40
46123;DHT22;31856;-35.404;149.120;2023-04-15T06:15:20;19.30;58.50
46123;DHT22;31856;-35.404;149.120;2023-04-15T06:17:50;19.30;59.20
46123;DHT22;31856;-35.404;149.120;2023-04-15T06:20:20;19.30;59.60
46123;DHT22;31856;-35.404;149.120;2023-04-15T06:22:49;19.30;59.80
46123;DHT22;31856;-35.404;149.120;2023-04-15T06:25:19;19.30;59.30
46123;DHT22;31856;-35.404;149.120;2023-04-15T06:27:51;19.30;59.00
46123;DHT22;31856;-35.404;149.120;2023-04-15T06:30:21;19.40;59.50
46123;DHT22;31856;-35.404;149.120;2023-04-15T06:32:50;19.40;59.10
46123;DHT22;31856;-35.404;149.120;2023-04-15T06:35:20;19.30;59.10
46123;DHT22;31856;-35.404;149.120;2023-04-15T06:37:56;19.30;59.10
46123;DHT22;31856;-35.404;149.120;2023-04-15T06:40:29;19.30;59.90
46123;DHT22;31856;-35.404;149.120;2023-04-15T06:42:58;19.30;60.10
46123;DHT22;31856;-35.404;149.120;2023-04-15T06:45:40;19.20;60.20
46123;DHT22;31856;-35.404;149.120;2023-04-15T06:48:19;19.10;60.60
46123;DHT22;31856;-35.404;149.120;2023-04-15T06:50:52;19.10;60.90
46123;DHT22;31856;-35.404;149.120;2023-04-15T06:53:21;19.00;60.80
46123;DHT22;31856;-35.404;149.120;2023-04-15T06:55:51;18.90;61.20
46123;DHT22;31856;-35.404;149.120;2023-04-15T06:58:20;18.90;61.60
46123;DHT22;31856;-35.404;149.120;2023-04-15T07:00:51;18.80;61.70
46123;DHT22;31856;-35.404;149.120;2023-04-15T07:03:20;18.80;61.60
46123;DHT22;31856;-35.404;149.120;2023-04-15T07:05:50;18.80;62.30
46123;DHT22;31856;-35.404;149.120;2023-04-15T07:08:20;18.70;62.50
46123;DHT22;31856;-35.404;149.120;2023-04-15T07:10:49;18.70;62.80
46123;DHT22;31856;-35.404;149.120;2023-04-15T07:13:27;18.60;62.60
46123;DHT22;31856;-35.404;149.120;2023-04-15T07:15:56;18.60;64.00
46123;DHT22;31856;-35.404;149.120;2023-04-15T07:18:26;18.50;66.10
46123;DHT22;31856;-35.404;149.120;2023-04-15T07:20:55;18.40;66.10
46123;DHT22;31856;-35.404;149.120;2023-04-15T07:23:25;18.40;66.20
46123;DHT22;31856;-35.404;149.120;2023-04-15T07:25:54;18.30;66.40
46123;DHT22;31856;-35.404;149.120;2023-04-15T07:28:24;18.30;66.00
46123;DHT22;31856;-35.404;149.120;2023-04-15T07:30:54;18.20;66.30
46123;DHT22;31856;-35.404;149.120;2023-04-15T07:33:24;18.20;66.80
46123;DHT22;31856;-35.404;149.120;2023-04-15T07:35:54;18.20;67.20
46123;DHT22;31856;-35.404;149.120;2023-04-15T07:38:24;18.10;67.40
46123;DHT22;31856;-35.404;149.120;2023-04-15T07:40:54;18.10;67.40
46123;DHT22;31856;-35.404;149.120;2023-04-15T07:43:27;18.10;67.50
46123;DHT22;31856;-35.404;149.120;2023-04-15T07:46:03;18.00;67.50
46123;DHT22;31856;-35.404;149.120;2023-04-15T07:48:33;18.00;67.70
46123;DHT22;31856;-35.404;149.120;2023-04-15T07:51:03;17.90;68.00
46123;DHT22;31856;-35.404;149.120;2023-04-15T07:53:33;17.90;67.80
46123;DHT22;31856;-35.404;149.120;2023-04-15T07:56:03;17.90;68.00
46123;DHT22;31856;-35.404;149.120;2023-04-15T07:59:06;17.80;67.90
46123;DHT22;31856;-35.404;149.120;2023-04-15T08:01:38;17.80;68.40
46123;DHT22;31856;-35.404;149.120;2023-04-15T08:04:08;17.80;68.40
46123;DHT22;31856;-35.404;149.120;2023-04-15T08:06:41;17.80;68.40
46123;DHT22;31856;-35.404;149.120;2023-04-15T08:09:10;17.70;68.60
46123;DHT22;31856;-35.404;149.120;2023-04-15T08:11:40;17.70;68.40
46123;DHT22;31856;-35.404;149.120;2023-04-15T08:14:09;17.70;68.30
46123;DHT22;31856;-35.404;149.120;2023-04-15T08:16:40;17.60;68.70
46123;DHT22;31856;-35.404;149.120;2023-04-15T08:19:10;17.50;69.10
46123;DHT22;31856;-35.404;149.120;2023-04-15T08:21:42;17.50;69.20
46123;DHT22;31856;-35.404;149.120;2023-04-15T08:24:12;17.50;69.50
46123;DHT22;31856;-35.404;149.120;2023-04-15T08:26:42;17.50;69.20
46123;DHT22;31856;-35.404;149.120;2023-04-15T08:29:14;17.40;69.10
46123;DHT22;31856;-35.404;149.120;2023-04-15T08:31:50;17.40;69.40
46123;DHT22;31856;-35.404;149.120;2023-04-15T08:34:22;17.40;69.60
46123;DHT22;31856;-35.404;149.120;2023-04-15T08:36:55;17.30;69.60
46123;DHT22;31856;-35.404;149.120;2023-04-15T08:39:25;17.30;69.60
46123;DHT22;31856;-35.404;149.120;2023-04-15T08:42:01;17.30;69.50
46123;DHT22;31856;-35.404;149.120;2023-04-15T08:44:35;17.40;69.40
46123;DHT22;31856;-35.404;149.120;2023-04-15T08:47:06;17.40;69.50
46123;DHT22;31856;-35.404;149.120;2023-04-15T08:49:38;17.30;69.60
46123;DHT22;31856;-35.404;149.120;2023-04-15T08:52:08;17.30;69.50
46123;DHT22;31856;-35.404;149.120;2023-04-15T08:54:41;17.30;69.50
46123;DHT22;31856;-35.404;149.120;2023-04-15T09:05:42;17.30;69.70
46123;DHT22;31856;-35.404;149.120;2023-04-15T09:08:12;17.30;69.30
46123;DHT22;31856;-35.404;149.120;2023-04-15T09:10:41;17.30;69.40
46123;DHT22;31856;-35.404;149.120;2023-04-15T09:13:12;17.20;69.60
46123;DHT22;31856;-35.404;149.120;2023-04-15T09:15:45;17.20;69.60
46123;DHT22;31856;-35.404;149.120;2023-04-15T09:18:25;17.20;69.60
46123;DHT22;31856;-35.404;149.120;2023-04-15T09:21:04;17.20;69.50
46123;DHT22;31856;-35.404;149.120;2023-04-15T09:23:38;17.20;69.20
46123;DHT22;31856;-35.404;149.120;2023-04-15T09:26:08;17.20;68.90
46123;DHT22;31856;-35.404;149.120;2023-04-15T09:28:41;17.10;68.80
46123;DHT22;31856;-35.404;149.120;2023-04-15T09:31:28;17.10;68.70
46123;DHT22;31856;-35.404;149.120;2023-04-15T09:34:00;17.10;68.50
46123;DHT22;31856;-35.404;149.120;2023-04-15T09:36:52;17.10;68.10
46123;DHT22;31856;-35.404;149.120;2023-04-15T09:39:19;17.10;68.10
46123;DHT22;31856;-35.404;149.120;2023-04-15T09:42:05;17.10;67.90
46123;DHT22;31856;-35.404;149.120;2023-04-15T09:44:35;17.10;67.80
46123;DHT22;31856;-35.404;149.120;2023-04-15T09:47:05;17.10;67.50
46123;DHT22;31856;-35.404;149.120;2023-04-15T09:49:35;17.10;67.60
46123;DHT22;31856;-35.404;149.120;2023-04-15T09:52:05;17.10;67.40
46123;DHT22;31856;-35.404;149.120;2023-04-15T09:54:38;17.10;67.40
46123;DHT22;31856;-35.404;149.120;2023-04-15T09:57:08;17.10;67.50
46123;DHT22;31856;-35.404;149.120;2023-04-15T09:59:38;17.20;67.50
46123;DHT22;31856;-35.404;149.120;2023-04-15T10:02:10;17.20;67.40
46123;DHT22;31856;-35.404;149.120;2023-04-15T10:04:40;17.20;67.30
46123;DHT22;31856;-35.404;149.120;2023-04-15T10:07:11;17.20;67.50
46123;DHT22;31856;-35.404;149.120;2023-04-15T10:12:32;17.20;67.50
46123;DHT22;31856;-35.404;149.120;2023-04-15T10:15:04;17.20;67.60
46123;DHT22;31856;-35.404;149.120;2023-04-15T10:17:36;17.20;67.60
46123;DHT22;31856;-35.404;149.120;2023-04-15T10:20:08;17.20;67.60
46123;DHT22;31856;-35.404;149.120;2023-04-15T10:22:40;17.20;67.60
46123;DHT22;31856;-35.404;149.120;2023-04-15T10:25:11;17.10;67.50
46123;DHT22;31856;-35.404;149.120;2023-04-15T10:28:06;17.10;67.60
46123;DHT22;31856;-35.404;149.120;2023-04-15T10:30:36;17.10;67.60
46123;DHT22;31856;-35.404;149.120;2023-04-15T10:33:07;17.10;67.70
46123;DHT22;31856;-35.404;149.120;2023-04-15T10:35:37;17.10;67.80
46123;DHT22;31856;-35.404;149.120;2023-04-15T10:43:48;17.10;68.00
46123;DHT22;31856;-35.404;149.120;2023-04-15T10:46:22;17.00;68.10
46123;DHT22;31856;-35.404;149.120;2023-04-15T10:48:54;17.00;68.10
46123;DHT22;31856;-35.404;149.120;2023-04-15T10:51:28;17.00;68.20
46123;DHT22;31856;-35.404;149.120;2023-04-15T10:53:59;17.00;68.10
46123;DHT22;31856;-35.404;149.120;2023-04-15T10:56:31;16.90;68.20
46123;DHT22;31856;-35.404;149.120;2023-04-15T10:59:00;16.90;68.20
46123;DHT22;31856;-35.404;149.120;2023-04-15T11:07:09;17.00;68.20
46123;DHT22;31856;-35.404;149.120;2023-04-15T11:09:39;17.00;68.20
46123;DHT22;31856;-35.404;149.120;2023-04-15T11:12:10;17.00;68.10
46123;DHT22;31856;-35.404;149.120;2023-04-15T11:14:51;17.00;68.00
46123;DHT22;31856;-35.404;149.120;2023-04-15T11:17:26;17.00;68.10
46123;DHT22;31856;-35.404;149.120;2023-04-15T11:19:58;17.00;68.00
46123;DHT22;31856;-35.404;149.120;2023-04-15T11:22:28;16.90;68.10
46123;DHT22;31856;-35.404;149.120;2023-04-15T11:24:58;17.00;68.10
46123;DHT22;31856;-35.404;149.120;2023-04-15T11:27:29;16.90;68.40
46123;DHT22;31856;-35.404;149.120;2023-04-15T11:29:58;16.90;68.30
46123;DHT22;31856;-35.404;149.120;2023-04-15T11:43:21;16.90;68.30
46123;DHT22;31856;-35.404;149.120;2023-04-15T11:45:54;16.80;68.20
46123;DHT22;31856;-35.404;149.120;2023-04-15T11:48:28;16.80;68.30
46123;DHT22;31856;-35.404;149.120;2023-04-15T11:50:59;16.80;68.30
46123;DHT22;31856;-35.404;149.120;2023-04-15T11:56:07;16.80;68.40
46123;DHT22;31856;-35.404;149.120;2023-04-15T11:58:37;16.80;68.50
46123;DHT22;31856;-35.404;149.120;2023-04-15T12:01:07;16.80;68.70
46123;DHT22;31856;-35.404;149.120;2023-04-15T12:03:41;16.80;68.80
46123;DHT22;31856;-35.404;149.120;2023-04-15T12:11:26;16.80;68.50
46123;DHT22;31856;-35.404;149.120;2023-04-15T12:13:58;16.80;68.30
46123;DHT22;31856;-35.404;149.120;2023-04-15T12:16:28;16.80;68.10
46123;DHT22;31856;-35.404;149.120;2023-04-15T12:19:03;16.80;68.00
46123;DHT22;31856;-35.404;149.120;2023-04-15T12:21:34;16.80;68.00
46123;DHT22;31856;-35.404;149.120;2023-04-15T12:24:05;16.80;68.00
46123;DHT22;31856;-35.404;149.120;2023-04-15T12:26:36;16.80;68.00
46123;DHT22;31856;-35.404;149.120;2023-04-15T12:29:07;16.80;68.00
46123;DHT22;31856;-35.404;149.120;2023-04-15T12:31:45;16.70;68.10
46123;DHT22;31856;-35.404;149.120;2023-04-15T12:34:15;16.70;67.90
46123;DHT22;31856;-35.404;149.120;2023-04-15T12:36:45;16.70;68.30
46123;DHT22;31856;-35.404;149.120;2023-04-15T12:39:14;16.70;68.30
46123;DHT22;31856;-35.404;149.120;2023-04-15T12:44:30;16.70;68.80
46123;DHT22;31856;-35.404;149.120;2023-04-15T12:47:00;16.70;69.40
46123;DHT22;31856;-35.404;149.120;2023-04-15T12:49:30;16.60;69.90
46123;DHT22;31856;-35.404;149.120;2023-04-15T12:52:01;16.60;70.60
46123;DHT22;31856;-35.404;149.120;2023-04-15T12:54:31;16.60;71.10
46123;DHT22;31856;-35.404;149.120;2023-04-15T12:57:01;16.50;71.50
46123;DHT22;31856;-35.404;149.120;2023-04-15T12:59:33;16.50;71.20
46123;DHT22;31856;-35.404;149.120;2023-04-15T13:02:04;16.40;71.00
46123;DHT22;31856;-35.404;149.120;2023-04-15T13:04:34;16.40;70.70
46123;DHT22;31856;-35.404;149.120;2023-04-15T13:07:06;16.50;70.50
46123;DHT22;31856;-35.404;149.120;2023-04-15T13:09:37;16.50;70.50
46123;DHT22;31856;-35.404;149.120;2023-04-15T13:12:07;16.50;70.40
46123;DHT22;31856;-35.404;149.120;2023-04-15T13:14:37;16.50;70.60
46123;DHT22;31856;-35.404;149.120;2023-04-15T13:17:07;16.50;70.40
46123;DHT22;31856;-35.404;149.120;2023-04-15T13:19:37;16.50;70.70
46123;DHT22;31856;-35.404;149.120;2023-04-15T13:22:07;16.50;70.70
46123;DHT22;31856;-35.404;149.120;2023-04-15T13:24:38;16.50;71.10
46123;DHT22;31856;-35.404;149.120;2023-04-15T13:27:08;16.40;70.90
46123;DHT22;31856;-35.404;149.120;2023-04-15T13:29:38;16.40;71.10
46123;DHT22;31856;-35.404;149.120;2023-04-15T13:32:07;16.40;71.30
46123;DHT22;31856;-35.404;149.120;2023-04-15T13:34:38;16.40;71.30
46123;DHT22;31856;-35.404;149.120;2023-04-15T13:37:07;16.40;71.20
46123;DHT22;31856;-35.404;149.120;2023-04-15T13:39:37;16.40;71.10
46123;DHT22;31856;-35.404;149.120;2023-04-15T13:42:07;16.40;71.10
46123;DHT22;31856;-35.404;149.120;2023-04-15T13:44:37;16.30;71.40
46123;DHT22;31856;-35.404;149.120;2023-04-15T13:47:06;16.30;71.40
46123;DHT22;31856;-35.404;149.120;2023-04-15T13:49:36;16.30;71.20
46123;DHT22;31856;-35.404;149.120;2023-04-15T13:52:06;16.40;71.10
46123;DHT22;31856;-35.404;149.120;2023-04-15T13:54:36;16.30;70.90
46123;DHT22;31856;-35.404;149.120;2023-04-15T13:57:05;16.30;70.80
46123;DHT22;31856;-35.404;149.120;2023-04-15T13:59:35;16.30;70.80
46123;DHT22;31856;-35.404;149.120;2023-04-15T14:02:04;16.30;70.80
46123;DHT22;31856;-35.404;149.120;2023-04-15T14:04:35;16.40;71.00
46123;DHT22;31856;-35.404;149.120;2023-04-15T14:07:06;16.40;71.00
46123;DHT22;31856;-35.404;149.120;2023-04-15T14:09:36;16.40;70.90
46123;DHT22;31856;-35.404;149.120;2023-04-15T14:12:09;16.40;70.80
46123;DHT22;31856;-35.404;149.120;2023-04-15T14:14:39;16.30;70.70
46123;DHT22;31856;-35.404;149.120;2023-04-15T14:17:09;16.40;70.90
46123;DHT22;31856;-35.404;149.120;2023-04-15T14:19:40;16.30;70.60
46123;DHT22;31856;-35.404;149.120;2023-04-15T14:22:10;16.30;70.60
46123;DHT22;31856;-35.404;149.120;2023-04-15T14:24:40;16.30;70.60
46123;DHT22;31856;-35.404;149.120;2023-04-15T14:27:09;16.30;70.40
46123;DHT22;31856;-35.404;149.120;2023-04-15T14:29:41;16.30;70.30
46123;DHT22;31856;-35.404;149.120;2023-04-15T14:32:11;16.30;70.60
46123;DHT22;31856;-35.404;149.120;2023-04-15T14:34:43;16.30;70.90
46123;DHT22;31856;-35.404;149.120;2023-04-15T14:37:13;16.30;71.00
46123;DHT22;31856;-35.404;149.120;2023-04-15T14:39:43;16.30;70.80
46123;DHT22;31856;-35.404;149.120;2023-04-15T14:42:14;16.30;70.90
46123;DHT22;31856;-35.404;149.120;2023-04-15T14:44:44;16.30;71.20
46123;DHT22;31856;-35.404;149.120;2023-04-15T14:47:14;16.30;71.10
46123;DHT22;31856;-35.404;149.120;2023-04-15T14:49:44;16.30;71.50
46123;DHT22;31856;-35.404;149.120;2023-04-15T14:52:16;16.30;71.40
46123;DHT22;31856;-35.404;149.120;2023-04-15T14:54:45;16.30;71.80
46123;DHT22;31856;-35.404;149.120;2023-04-15T14:57:15;16.20;71.90
46123;DHT22;31856;-35.404;149.120;2023-04-15T14:59:44;16.20;71.80
46123;DHT22;31856;-35.404;149.120;2023-04-15T15:02:14;16.30;71.90
46123;DHT22;31856;-35.404;149.120;2023-04-15T15:05:05;16.20;71.90
46123;DHT22;31856;-35.404;149.120;2023-04-15T15:07:35;16.30;71.70
46123;DHT22;31856;-35.404;149.120;2023-04-15T15:10:05;16.30;71.70
46123;DHT22;31856;-35.404;149.120;2023-04-15T15:12:35;16.30;71.40
46123;DHT22;31856;-35.404;149.120;2023-04-15T15:15:05;16.20;71.50
46123;DHT22;31856;-35.404;149.120;2023-04-15T15:17:54;16.20;71.50
46123;DHT22;31856;-35.404;149.120;2023-04-15T15:20:24;16.30;71.60
46123;DHT22;31856;-35.404;149.120;2023-04-15T15:22:53;16.20;71.60
46123;DHT22;31856;-35.404;149.120;2023-04-15T15:25:23;16.20;71.70
46123;DHT22;31856;-35.404;149.120;2023-04-15T15:27:53;16.10;71.80
46123;DHT22;31856;-35.404;149.120;2023-04-15T15:30:22;16.20;71.80
46123;DHT22;31856;-35.404;149.120;2023-04-15T15:32:52;16.10;71.70
46123;DHT22;31856;-35.404;149.120;2023-04-15T15:35:21;16.10;71.90
46123;DHT22;31856;-35.404;149.120;2023-04-15T15:37:51;16.10;71.90
46123;DHT22;31856;-35.404;149.120;2023-04-15T15:40:22;16.10;72.20
46123;DHT22;31856;-35.404;149.120;2023-04-15T15:42:52;16.00;72.30
46123;DHT22;31856;-35.404;149.120;2023-04-15T15:45:21;16.00;72.40
46123;DHT22;31856;-35.404;149.120;2023-04-15T15:47:51;16.00;72.40
46123;DHT22;31856;-35.404;149.120;2023-04-15T15:50:21;16.00;72.40
46123;DHT22;31856;-35.404;149.120;2023-04-15T15:52:51;16.00;72.50
46123;DHT22;31856;-35.404;149.120;2023-04-15T15:55:21;16.00;72.60
46123;DHT22;31856;-35.404;149.120;2023-04-15T15:57:53;15.90;72.70
46123;DHT22;31856;-35.404;149.120;2023-04-15T16:00:22;15.90;72.80
46123;DHT22;31856;-35.404;149.120;2023-04-15T16:02:57;15.90;72.80
46123;DHT22;31856;-35.404;149.120;2023-04-15T16:05:29;15.80;72.70
46123;DHT22;31856;-35.404;149.120;2023-04-15T16:07:59;15.80;72.70
46123;DHT22;31856;-35.404;149.120;2023-04-15T16:10:29;15.80;72.90
46123;DHT22;31856;-35.404;149.120;2023-04-15T16:13:00;15.80;72.70
46123;DHT22;31856;-35.404;149.120;2023-04-15T16:15:30;15.80;72.80
46123;DHT22;31856;-35.404;149.120;2023-04-15T16:17:59;15.80;72.70
46123;DHT22;31856;-35.404;149.120;2023-04-15T16:20:30;15.80;72.80
46123;DHT22;31856;-35.404;149.120;2023-04-15T16:22:59;15.80;72.80
46123;DHT22;31856;-35.404;149.120;2023-04-15T16:25:34;15.80;72.90
46123;DHT22;31856;-35.404;149.120;2023-04-15T16:28:05;15.80;72.90
46123;DHT22;31856;-35.404;149.120;2023-04-15T16:30:52;15.80;73.10
46123;DHT22;31856;-35.404;149.120;2023-04-15T16:33:21;15.80;73.20
46123;DHT22;31856;-35.404;149.120;2023-04-15T16:35:51;15.90;73.40
46123;DHT22;31856;-35.404;149.120;2023-04-15T16:38:21;15.80;73.80
46123;DHT22;31856;-35.404;149.120;2023-04-15T16:40:51;15.90;73.70
46123;DHT22;31856;-35.404;149.120;2023-04-15T16:43:20;15.90;73.90
46123;DHT22;31856;-35.404;149.120;2023-04-15T16:45:51;16.00;74.00
46123;DHT22;31856;-35.404;149.120;2023-04-15T16:48:21;15.90;74.20
46123;DHT22;31856;-35.404;149.120;2023-04-15T16:50:50;15.90;74.30
46123;DHT22;31856;-35.404;149.120;2023-04-15T16:53:21;15.90;74.50
46123;DHT22;31856;-35.404;149.120;2023-04-15T16:55:50;15.80;75.70
46123;DHT22;31856;-35.404;149.120;2023-04-15T16:58:21;15.80;76.50
46123;DHT22;31856;-35.404;149.120;2023-04-15T17:00:52;15.70;77.80
46123;DHT22;31856;-35.404;149.120;2023-04-15T17:03:22;15.60;79.00
46123;DHT22;31856;-35.404;149.120;2023-04-15T17:05:52;15.60;79.70
46123;DHT22;31856;-35.404;149.120;2023-04-15T17:08:22;15.50;80.40
46123;DHT22;31856;-35.404;149.120;2023-04-15T17:10:51;15.40;81.10
46123;DHT22;31856;-35.404;149.120;2023-04-15T17:13:24;15.30;82.00
46123;DHT22;31856;-35.404;149.120;2023-04-15T17:15:54;15.30;82.60
46123;DHT22;31856;-35.404;149.120;2023-04-15T17:18:24;15.20;82.70
46123;DHT22;31856;-35.404;149.120;2023-04-15T17:20:56;15.10;83.20
46123;DHT22;31856;-35.404;149.120;2023-04-15T17:23:26;15.10;83.50
46123;DHT22;31856;-35.404;149.120;2023-04-15T17:25:55;15.00;83.70
46123;DHT22;31856;-35.404;149.120;2023-04-15T17:28:25;15.10;83.70
46123;DHT22;31856;-35.404;149.120;2023-04-15T17:30:55;15.00;84.20
46123;DHT22;31856;-35.404;149.120;2023-04-15T17:33:25;14.90;84.70
46123;DHT22;31856;-35.404;149.120;2023-04-15T17:36:15;14.90;84.80
46123;DHT22;31856;-35.404;149.120;2023-04-15T17:38:44;14.90;84.90
46123;DHT22;31856;-35.404;149.120;2023-04-15T17:41:14;14.80;85.30
46123;DHT22;31856;-35.404;149.120;2023-04-15T17:43:43;14.80;85.50
46123;DHT22;31856;-35.404;149.120;2023-04-15T17:46:13;14.80;85.70
46123;DHT22;31856;-35.404;149.120;2023-04-15T17:48:42;14.60;85.90
46123;DHT22;31856;-35.404;149.120;2023-04-15T17:51:12;14.70;86.00
46123;DHT22;31856;-35.404;149.120;2023-04-15T17:53:43;14.70;86.00
46123;DHT22;31856;-35.404;149.120;2023-04-15T17:56:13;14.70;86.00
46123;DHT22;31856;-35.404;149.120;2023-04-15T17:58:43;14.70;86.00
46123;DHT22;31856;-35.404;149.120;2023-04-15T18:01:13;14.70;86.20
46123;DHT22;31856;-35.404;149.120;2023-04-15T18:03:43;14.70;86.20
46123;DHT22;31856;-35.404;149.120;2023-04-15T18:06:13;14.80;85.90
46123;DHT22;31856;-35.404;149.120;2023-04-15T18:08:44;14.70;85.90
46123;DHT22;31856;-35.404;149.120;2023-04-15T18:11:14;14.60;86.00
46123;DHT22;31856;-35.404;149.120;2023-04-15T18:13:43;14.70;86.10
46123;DHT22;31856;-35.404;149.120;2023-04-15T18:16:14;14.60;86.10
46123;DHT22;31856;-35.404;149.120;2023-04-15T18:18:44;14.60;86.30
46123;DHT22;31856;-35.404;149.120;2023-04-15T18:21:13;14.60;86.20
46123;DHT22;31856;-35.404;149.120;2023-04-15T18:23:42;14.50;86.30
46123;DHT22;31856;-35.404;149.120;2023-04-15T18:26:13;14.60;86.30
46123;DHT22;31856;-35.404;149.120;2023-04-15T18:28:43;14.40;86.60
46123;DHT22;31856;-35.404;149.120;2023-04-15T18:31:13;14.40;87.00
46123;DHT22;31856;-35.404;149.120;2023-04-15T18:33:44;14.50;86.90
46123;DHT22;31856;-35.404;149.120;2023-04-15T18:36:14;14.40;87.00
46123;DHT22;31856;-35.404;149.120;2023-04-15T18:38:44;14.30;87.10
46123;DHT22;31856;-35.404;149.120;2023-04-15T18:41:15;14.40;87.10
46123;DHT22;31856;-35.404;149.120;2023-04-15T18:43:45;14.30;87.30
46123;DHT22;31856;-35.404;149.120;2023-04-15T18:46:14;14.40;87.30
46123;DHT22;31856;-35.404;149.120;2023-04-15T18:48:45;14.40;87.30
46123;DHT22;31856;-35.404;149.120;2023-04-15T18:51:14;14.40;87.30
46123;DHT22;31856;-35.404;149.120;2023-04-15T18:53:44;14.30;87.30
46123;DHT22;31856;-35.404;149.120;2023-04-15T18:56:16;14.30;87.40
46123;DHT22;31856;-35.404;149.120;2023-04-15T18:58:45;14.40;87.30
46123;DHT22;31856;-35.404;149.120;2023-04-15T19:01:34;14.40;87.30
46123;DHT22;31856;-35.404;149.120;2023-04-15T19:04:04;14.50;87.30
46123;DHT22;31856;-35.404;149.120;2023-04-15T19:06:34;14.50;87.10
46123;DHT22;31856;-35.404;149.120;2023-04-15T19:09:04;14.50;87.10
46123;DHT22;31856;-35.404;149.120;2023-04-15T19:11:33;14.50;87.00
46123;DHT22;31856;-35.404;149.120;2023-04-15T19:14:03;14.40;87.00
46123;DHT22;31856;-35.404;149.120;2023-04-15T19:16:33;14.40;87.10
46123;DHT22;31856;-35.404;149.120;2023-04-15T19:19:02;14.40;87.10
46123;DHT22;31856;-35.404;149.120;2023-04-15T19:21:34;14.40;87.30
46123;DHT22;31856;-35.404;149.120;2023-04-15T19:24:05;14.40;87.20